sensor_id;sensor_type;location;lat;lon;timestamp;P1;durP1;ratioP1;P2;durP2;ratioP2
60935;SDS011;46804;51.786;19.520;2023-07-13T00:03:12;8.45;;;4.40;;
60935;SDS011;46804;51.786;19.520;2023-07-13T00:07:13;6.50;;;4.57;;
60935;SDS011;46804;51.786;19.520;2023-07-13T00:11:15;9.50;;;4.90;;
60935;SDS011;46804;51.786;19.520;2023-07-13T00:15:18;7.28;;;4.25;;
60935;SDS011;46804;51.786;19.520;2023-07-13T00:19:22;6.43;;;4.25;;
60935;SDS011;46804;51.786;19.520;2023-07-13T00:23:23;8.65;;;4.25;;
60935;SDS011;46804;51.786;19.520;2023-07-13T00:27:24;8.52;;;4.78;;
60935;SDS011;46804;51.786;19.520;2023-07-13T00:31:26;7.03;;;4.45;;
60935;SDS011;46804;51.786;19.520;2023-07-13T00:35:29;6.25;;;3.80;;
60935;SDS011;46804;51.786;19.520;2023-07-13T00:39:31;6.65;;;3.92;;
60935;SDS011;46804;51.786;19.520;2023-07-13T00:43:31;6.78;;;4.10;;
60935;SDS011;46804;51.786;19.520;2023-07-13T00:47:32;5.90;;;3.67;;
60935;SDS011;46804;51.786;19.520;2023-07-13T00:51:37;12.18;;;4.25;;
60935;SDS011;46804;51.786;19.520;2023-07-13T00:55:41;6.47;;;3.95;;
60935;SDS011;46804;51.786;19.520;2023-07-13T00:59:43;6.85;;;4.03;;
60935;SDS011;46804;51.786;19.520;2023-07-13T01:03:47;8.25;;;4.20;;
60935;SDS011;46804;51.786;19.520;2023-07-13T01:07:49;7.80;;;3.80;;
60935;SDS011;46804;51.786;19.520;2023-07-13T01:11:52;7.57;;;3.97;;
60935;SDS011;46804;51.786;19.520;2023-07-13T01:15:53;7.90;;;3.60;;
60935;SDS011;46804;51.786;19.520;2023-07-13T01:19:57;5.90;;;3.78;;
60935;SDS011;46804;51.786;19.520;2023-07-13T01:23:57;7.17;;;3.83;;
60935;SDS011;46804;51.786;19.520;2023-07-13T01:27:58;10.30;;;4.40;;
60935;SDS011;46804;51.786;19.520;2023-07-13T01:31:59;7.30;;;3.85;;
60935;SDS011;46804;51.786;19.520;2023-07-13T01:36:01;8.30;;;4.45;;
60935;SDS011;46804;51.786;19.520;2023-07-13T01:40:03;6.28;;;4.20;;
60935;SDS011;46804;51.786;19.520;2023-07-13T01:44:04;6.93;;;4.00;;
60935;SDS011;46804;51.786;19.520;2023-07-13T01:48:05;7.07;;;3.97;;
60935;SDS011;46804;51.786;19.520;2023-07-13T01:52:07;6.55;;;4.07;;
60935;SDS011;46804;51.786;19.520;2023-07-13T01:56:08;7.43;;;4.13;;
60935;SDS011;46804;51.786;19.520;2023-07-13T02:00:09;8.25;;;3.83;;
60935;SDS011;46804;51.786;19.520;2023-07-13T02:04:11;7.00;;;4.47;;
60935;SDS011;46804;51.786;19.520;2023-07-13T02:08:12;8.93;;;4.18;;
60935;SDS011;46804;51.786;19.520;2023-07-13T02:12:12;8.70;;;4.47;;
60935;SDS011;46804;51.786;19.520;2023-07-13T02:16:13;6.32;;;4.13;;
60935;SDS011;46804;51.786;19.520;2023-07-13T02:20:14;7.43;;;5.00;;
60935;SDS011;46804;51.786;19.520;2023-07-13T02:24:14;8.65;;;4.93;;
60935;SDS011;46804;51.786;19.520;2023-07-13T02:28:17;6.28;;;4.10;;
60935;SDS011;46804;51.786;19.520;2023-07-13T02:32:18;7.65;;;4.22;;
60935;SDS011;46804;51.786;19.520;2023-07-13T02:36:19;7.03;;;4.13;;
60935;SDS011;46804;51.786;19.520;2023-07-13T02:40:20;10.63;;;4.20;;
60935;SDS011;46804;51.786;19.520;2023-07-13T02:44:21;8.27;;;4.78;;
60935;SDS011;46804;51.786;19.520;2023-07-13T02:48:21;9.20;;;4.53;;
60935;SDS011;46804;51.786;19.520;2023-07-13T02:52:22;12.18;;;5.25;;
60935;SDS011;46804;51.786;19.520;2023-07-13T02:56:24;12.45;;;4.65;;
60935;SDS011;46804;51.786;19.520;2023-07-13T03:00:27;8.35;;;4.90;;
60935;SDS011;46804;51.786;19.520;2023-07-13T03:04:28;10.95;;;5.95;;
60935;SDS011;46804;51.786;19.520;2023-07-13T03:08:29;11.43;;;6.25;;
60935;SDS011;46804;51.786;19.520;2023-07-13T03:12:29;10.13;;;4.75;;
60935;SDS011;46804;51.786;19.520;2023-07-13T03:16:30;8.70;;;5.47;;
60935;SDS011;46804;51.786;19.520;2023-07-13T03:20:34;8.50;;;5.43;;
60935;SDS011;46804;51.786;19.520;2023-07-13T03:24:35;10.55;;;5.32;;
60935;SDS011;46804;51.786;19.520;2023-07-13T03:28:38;9.27;;;5.35;;
60935;SDS011;46804;51.786;19.520;2023-07-13T03:32:39;9.38;;;5.85;;
60935;SDS011;46804;51.786;19.520;2023-07-13T03:36:40;16.02;;;6.78;;
60935;SDS011;46804;51.786;19.520;2023-07-13T03:40:41;8.80;;;6.28;;
60935;SDS011;46804;51.786;19.520;2023-07-13T03:44:43;12.30;;;8.05;;
60935;SDS011;46804;51.786;19.520;2023-07-13T03:48:52;8.95;;;6.22;;
60935;SDS011;46804;51.786;19.520;2023-07-13T03:52:53;7.97;;;5.45;;
60935;SDS011;46804;51.786;19.520;2023-07-13T03:56:54;11.38;;;6.25;;
60935;SDS011;46804;51.786;19.520;2023-07-13T04:00:55;11.13;;;5.70;;
60935;SDS011;46804;51.786;19.520;2023-07-13T04:04:57;9.73;;;5.65;;
60935;SDS011;46804;51.786;19.520;2023-07-13T04:08:58;11.27;;;6.55;;
60935;SDS011;46804;51.786;19.520;2023-07-13T04:13:00;8.57;;;5.30;;
60935;SDS011;46804;51.786;19.520;2023-07-13T04:17:01;14.00;;;6.47;;
60935;SDS011;46804;51.786;19.520;2023-07-13T04:21:02;14.40;;;5.80;;
60935;SDS011;46804;51.786;19.520;2023-07-13T04:25:02;8.98;;;5.60;;
60935;SDS011;46804;51.786;19.520;2023-07-13T04:29:06;16.48;;;6.60;;
60935;SDS011;46804;51.786;19.520;2023-07-13T04:33:07;12.70;;;6.85;;
60935;SDS011;46804;51.786;19.520;2023-07-13T04:37:09;11.60;;;6.43;;
60935;SDS011;46804;51.786;19.520;2023-07-13T04:41:09;12.88;;;6.80;;
60935;SDS011;46804;51.786;19.520;2023-07-13T04:45:11;13.25;;;7.13;;
60935;SDS011;46804;51.786;19.520;2023-07-13T04:49:13;15.55;;;6.47;;
60935;SDS011;46804;51.786;19.520;2023-07-13T04:53:13;12.90;;;6.85;;
60935;SDS011;46804;51.786;19.520;2023-07-13T04:57:14;15.30;;;7.18;;
60935;SDS011;46804;51.786;19.520;2023-07-13T05:01:14;11.93;;;5.97;;
60935;SDS011;46804;51.786;19.520;2023-07-13T05:05:15;10.43;;;6.78;;
60935;SDS011;46804;51.786;19.520;2023-07-13T05:09:16;14.10;;;6.85;;
60935;SDS011;46804;51.786;19.520;2023-07-13T05:13:17;12.05;;;6.15;;
60935;SDS011;46804;51.786;19.520;2023-07-13T05:17:18;10.32;;;6.88;;
60935;SDS011;46804;51.786;19.520;2023-07-13T05:21:19;14.25;;;7.05;;
60935;SDS011;46804;51.786;19.520;2023-07-13T05:25:20;10.75;;;6.97;;
60935;SDS011;46804;51.786;19.520;2023-07-13T05:29:21;14.48;;;7.53;;
60935;SDS011;46804;51.786;19.520;2023-07-13T05:33:22;14.63;;;7.70;;
60935;SDS011;46804;51.786;19.520;2023-07-13T05:37:24;13.18;;;7.18;;
60935;SDS011;46804;51.786;19.520;2023-07-13T05:41:25;14.32;;;7.65;;
60935;SDS011;46804;51.786;19.520;2023-07-13T05:45:26;13.88;;;5.95;;
60935;SDS011;46804;51.786;19.520;2023-07-13T05:49:27;9.98;;;5.93;;
60935;SDS011;46804;51.786;19.520;2023-07-13T05:53:27;18.08;;;6.45;;
60935;SDS011;46804;51.786;19.520;2023-07-13T05:57:29;9.60;;;6.25;;
60935;SDS011;46804;51.786;19.520;2023-07-13T06:01:31;9.63;;;6.23;;
60935;SDS011;46804;51.786;19.520;2023-07-13T06:05:32;11.55;;;6.28;;
60935;SDS011;46804;51.786;19.520;2023-07-13T06:09:34;12.70;;;5.72;;
60935;SDS011;46804;51.786;19.520;2023-07-13T06:13:34;8.23;;;5.13;;
60935;SDS011;46804;51.786;19.520;2023-07-13T06:17:36;10.82;;;5.78;;
60935;SDS011;46804;51.786;19.520;2023-07-13T06:21:36;13.70;;;5.38;;
60935;SDS011;46804;51.786;19.520;2023-07-13T06:25:37;12.20;;;5.50;;
60935;SDS011;46804;51.786;19.520;2023-07-13T06:29:38;10.20;;;5.60;;
60935;SDS011;46804;51.786;19.520;2023-07-13T06:33:40;12.23;;;6.03;;
60935;SDS011;46804;51.786;19.520;2023-07-13T06:37:40;9.48;;;5.25;;
60935;SDS011;46804;51.786;19.520;2023-07-13T06:41:41;8.52;;;5.35;;
60935;SDS011;46804;51.786;19.520;2023-07-13T06:45:43;12.48;;;5.53;;
60935;SDS011;46804;51.786;19.520;2023-07-13T06:49:50;12.13;;;5.35;;
60935;SDS011;46804;51.786;19.520;2023-07-13T06:53:50;13.65;;;4.78;;
60935;SDS011;46804;51.786;19.520;2023-07-13T06:57:51;17.35;;;5.03;;
60935;SDS011;46804;51.786;19.520;2023-07-13T07:01:52;8.02;;;4.85;;
60935;SDS011;46804;51.786;19.520;2023-07-13T07:05:52;10.95;;;4.43;;
60935;SDS011;46804;51.786;19.520;2023-07-13T07:09:53;8.98;;;4.20;;
60935;SDS011;46804;51.786;19.520;2023-07-13T07:13:54;7.85;;;4.32;;
60935;SDS011;46804;51.786;19.520;2023-07-13T07:17:55;10.23;;;4.40;;
60935;SDS011;46804;51.786;19.520;2023-07-13T07:21:56;7.70;;;4.32;;
60935;SDS011;46804;51.786;19.520;2023-07-13T07:25:57;7.57;;;4.95;;
60935;SDS011;46804;51.786;19.520;2023-07-13T07:29:57;7.55;;;4.93;;
60935;SDS011;46804;51.786;19.520;2023-07-13T07:33:58;11.18;;;5.13;;
60935;SDS011;46804;51.786;19.520;2023-07-13T07:37:59;10.63;;;5.35;;
60935;SDS011;46804;51.786;19.520;2023-07-13T07:42:00;6.28;;;4.53;;
60935;SDS011;46804;51.786;19.520;2023-07-13T07:46:00;7.05;;;4.50;;
60935;SDS011;46804;51.786;19.520;2023-07-13T07:50:01;8.52;;;4.63;;
60935;SDS011;46804;51.786;19.520;2023-07-13T07:54:02;9.38;;;4.80;;
60935;SDS011;46804;51.786;19.520;2023-07-13T07:58:04;10.18;;;4.75;;
60935;SDS011;46804;51.786;19.520;2023-07-13T08:02:06;10.82;;;4.57;;
60935;SDS011;46804;51.786;19.520;2023-07-13T08:06:07;11.25;;;4.00;;
60935;SDS011;46804;51.786;19.520;2023-07-13T08:10:08;10.48;;;4.05;;
60935;SDS011;46804;51.786;19.520;2023-07-13T08:14:09;5.28;;;3.55;;
60935;SDS011;46804;51.786;19.520;2023-07-13T08:18:10;8.20;;;4.10;;
60935;SDS011;46804;51.786;19.520;2023-07-13T08:22:10;7.95;;;4.38;;
60935;SDS011;46804;51.786;19.520;2023-07-13T08:26:11;17.90;;;7.30;;
60935;SDS011;46804;51.786;19.520;2023-07-13T08:30:12;15.93;;;8.20;;
60935;SDS011;46804;51.786;19.520;2023-07-13T08:34:12;14.43;;;7.60;;
60935;SDS011;46804;51.786;19.520;2023-07-13T08:38:15;11.70;;;7.63;;
60935;SDS011;46804;51.786;19.520;2023-07-13T08:42:36;12.23;;;7.47;;
60935;SDS011;46804;51.786;19.520;2023-07-13T08:46:40;11.07;;;7.10;;
60935;SDS011;46804;51.786;19.520;2023-07-13T08:50:49;14.40;;;7.20;;
60935;SDS011;46804;51.786;19.520;2023-07-13T08:54:55;14.90;;;6.97;;
60935;SDS011;46804;51.786;19.520;2023-07-13T08:59:00;11.75;;;6.63;;
60935;SDS011;46804;51.786;19.520;2023-07-13T09:03:06;11.70;;;5.75;;
60935;SDS011;46804;51.786;19.520;2023-07-13T09:07:21;8.98;;;5.68;;
60935;SDS011;46804;51.786;19.520;2023-07-13T09:11:56;7.38;;;4.95;;
60935;SDS011;46804;51.786;19.520;2023-07-13T09:16:07;8.65;;;4.55;;
60935;SDS011;46804;51.786;19.520;2023-07-13T09:24:22;8.85;;;4.20;;
60935;SDS011;46804;51.786;19.520;2023-07-13T09:28:44;6.53;;;4.53;;
60935;SDS011;46804;51.786;19.520;2023-07-13T09:32:51;7.03;;;4.53;;
60935;SDS011;46804;51.786;19.520;2023-07-13T09:36:53;9.70;;;4.07;;
60935;SDS011;46804;51.786;19.520;2023-07-13T09:45:01;7.35;;;4.10;;
60935;SDS011;46804;51.786;19.520;2023-07-13T09:49:03;6.80;;;4.10;;
60935;SDS011;46804;51.786;19.520;2023-07-13T09:53:03;6.93;;;4.32;;
60935;SDS011;46804;51.786;19.520;2023-07-13T09:57:12;10.02;;;4.28;;
60935;SDS011;46804;51.786;19.520;2023-07-13T10:01:14;6.95;;;3.75;;
60935;SDS011;46804;51.786;19.520;2023-07-13T10:05:15;6.22;;;4.05;;
60935;SDS011;46804;51.786;19.520;2023-07-13T10:09:17;9.88;;;3.85;;
60935;SDS011;46804;51.786;19.520;2023-07-13T10:13:24;10.50;;;3.88;;
60935;SDS011;46804;51.786;19.520;2023-07-13T10:17:32;11.57;;;3.90;;
60935;SDS011;46804;51.786;19.520;2023-07-13T10:21:35;4.90;;;3.40;;
60935;SDS011;46804;51.786;19.520;2023-07-13T10:25:49;6.97;;;4.18;;
60935;SDS011;46804;51.786;19.520;2023-07-13T10:29:55;7.22;;;4.15;;
60935;SDS011;46804;51.786;19.520;2023-07-13T10:34:02;6.65;;;4.13;;
60935;SDS011;46804;51.786;19.520;2023-07-13T10:38:04;9.00;;;4.13;;
60935;SDS011;46804;51.786;19.520;2023-07-13T10:42:08;7.53;;;3.92;;
60935;SDS011;46804;51.786;19.520;2023-07-13T10:46:14;6.78;;;4.32;;
60935;SDS011;46804;51.786;19.520;2023-07-13T10:50:18;8.13;;;4.43;;
60935;SDS011;46804;51.786;19.520;2023-07-13T10:54:26;9.10;;;4.32;;
60935;SDS011;46804;51.786;19.520;2023-07-13T10:58:36;7.75;;;4.38;;
60935;SDS011;46804;51.786;19.520;2023-07-13T11:02:37;8.05;;;4.10;;
60935;SDS011;46804;51.786;19.520;2023-07-13T11:06:39;6.70;;;4.47;;
60935;SDS011;46804;51.786;19.520;2023-07-13T11:10:52;8.85;;;4.68;;
60935;SDS011;46804;51.786;19.520;2023-07-13T11:27:21;9.75;;;4.07;;
60935;SDS011;46804;51.786;19.520;2023-07-13T11:31:36;8.60;;;4.35;;
60935;SDS011;46804;51.786;19.520;2023-07-13T11:35:38;6.07;;;4.07;;
60935;SDS011;46804;51.786;19.520;2023-07-13T11:39:53;6.65;;;3.95;;
60935;SDS011;46804;51.786;19.520;2023-07-13T11:43:55;8.75;;;4.40;;
60935;SDS011;46804;51.786;19.520;2023-07-13T11:48:16;9.82;;;4.55;;
60935;SDS011;46804;51.786;19.520;2023-07-13T11:52:19;8.32;;;4.43;;
60935;SDS011;46804;51.786;19.520;2023-07-13T11:56:23;16.67;;;4.07;;
60935;SDS011;46804;51.786;19.520;2023-07-13T12:00:26;9.45;;;4.68;;
60935;SDS011;46804;51.786;19.520;2023-07-13T12:04:31;7.78;;;4.55;;
60935;SDS011;46804;51.786;19.520;2023-07-13T12:08:39;6.22;;;3.70;;
60935;SDS011;46804;51.786;19.520;2023-07-13T12:12:46;9.00;;;3.58;;
60935;SDS011;46804;51.786;19.520;2023-07-13T12:17:00;7.53;;;3.80;;
60935;SDS011;46804;51.786;19.520;2023-07-13T12:21:01;7.07;;;3.80;;
60935;SDS011;46804;51.786;19.520;2023-07-13T12:25:03;7.40;;;3.60;;
60935;SDS011;46804;51.786;19.520;2023-07-13T12:29:05;6.95;;;3.58;;
60935;SDS011;46804;51.786;19.520;2023-07-13T12:33:08;6.88;;;3.50;;
60935;SDS011;46804;51.786;19.520;2023-07-13T12:37:11;9.57;;;3.40;;
60935;SDS011;46804;51.786;19.520;2023-07-13T12:41:14;7.22;;;3.40;;
60935;SDS011;46804;51.786;19.520;2023-07-13T12:45:17;5.93;;;2.97;;
60935;SDS011;46804;51.786;19.520;2023-07-13T12:49:26;5.47;;;3.03;;
60935;SDS011;46804;51.786;19.520;2023-07-13T12:53:30;6.55;;;2.90;;
60935;SDS011;46804;51.786;19.520;2023-07-13T12:57:41;6.35;;;3.30;;
60935;SDS011;46804;51.786;19.520;2023-07-13T13:01:50;4.95;;;3.15;;
60935;SDS011;46804;51.786;19.520;2023-07-13T13:06:02;5.82;;;3.50;;
60935;SDS011;46804;51.786;19.520;2023-07-13T13:10:11;6.83;;;3.50;;
60935;SDS011;46804;51.786;19.520;2023-07-13T13:14:13;5.40;;;3.38;;
60935;SDS011;46804;51.786;19.520;2023-07-13T13:18:18;6.00;;;3.28;;
60935;SDS011;46804;51.786;19.520;2023-07-13T13:22:20;5.68;;;3.33;;
60935;SDS011;46804;51.786;19.520;2023-07-13T13:26:22;6.95;;;4.05;;
60935;SDS011;46804;51.786;19.520;2023-07-13T13:30:22;7.55;;;3.40;;
60935;SDS011;46804;51.786;19.520;2023-07-13T13:34:24;5.40;;;3.40;;
60935;SDS011;46804;51.786;19.520;2023-07-13T13:38:26;8.93;;;3.60;;
60935;SDS011;46804;51.786;19.520;2023-07-13T13:42:28;10.50;;;3.50;;
60935;SDS011;46804;51.786;19.520;2023-07-13T13:46:29;9.30;;;3.60;;
60935;SDS011;46804;51.786;19.520;2023-07-13T13:50:30;6.05;;;3.10;;
60935;SDS011;46804;51.786;19.520;2023-07-13T13:54:30;5.88;;;3.35;;
60935;SDS011;46804;51.786;19.520;2023-07-13T13:58:31;5.72;;;3.13;;
60935;SDS011;46804;51.786;19.520;2023-07-13T14:02:31;9.15;;;3.60;;
60935;SDS011;46804;51.786;19.520;2023-07-13T14:06:33;5.38;;;3.30;;
60935;SDS011;46804;51.786;19.520;2023-07-13T14:10:33;8.65;;;3.30;;
60935;SDS011;46804;51.786;19.520;2023-07-13T14:14:34;8.98;;;3.60;;
60935;SDS011;46804;51.786;19.520;2023-07-13T14:18:34;8.32;;;3.30;;
60935;SDS011;46804;51.786;19.520;2023-07-13T14:22:35;6.88;;;3.35;;
60935;SDS011;46804;51.786;19.520;2023-07-13T14:26:36;7.70;;;3.40;;
60935;SDS011;46804;51.786;19.520;2023-07-13T14:30:39;5.72;;;3.38;;
60935;SDS011;46804;51.786;19.520;2023-07-13T14:34:40;6.43;;;3.00;;
60935;SDS011;46804;51.786;19.520;2023-07-13T14:38:41;6.70;;;3.00;;
60935;SDS011;46804;51.786;19.520;2023-07-13T14:42:41;5.07;;;3.03;;
60935;SDS011;46804;51.786;19.520;2023-07-13T14:46:42;8.57;;;3.50;;
60935;SDS011;46804;51.786;19.520;2023-07-13T14:50:45;7.25;;;2.72;;
60935;SDS011;46804;51.786;19.520;2023-07-13T14:54:46;4.57;;;2.88;;
60935;SDS011;46804;51.786;19.520;2023-07-13T14:58:47;5.18;;;3.08;;
60935;SDS011;46804;51.786;19.520;2023-07-13T15:02:48;8.25;;;3.05;;
60935;SDS011;46804;51.786;19.520;2023-07-13T15:06:59;6.45;;;2.90;;
60935;SDS011;46804;51.786;19.520;2023-07-13T15:11:02;9.23;;;4.18;;
60935;SDS011;46804;51.786;19.520;2023-07-13T15:15:05;4.70;;;2.85;;
60935;SDS011;46804;51.786;19.520;2023-07-13T15:19:08;6.85;;;3.30;;
60935;SDS011;46804;51.786;19.520;2023-07-13T15:23:11;8.10;;;3.45;;
60935;SDS011;46804;51.786;19.520;2023-07-13T15:27:13;13.35;;;5.97;;
60935;SDS011;46804;51.786;19.520;2023-07-13T15:31:21;9.65;;;3.70;;
60935;SDS011;46804;51.786;19.520;2023-07-13T15:35:25;4.82;;;3.28;;
60935;SDS011;46804;51.786;19.520;2023-07-13T15:39:26;4.93;;;3.58;;
60935;SDS011;46804;51.786;19.520;2023-07-13T15:43:28;7.82;;;3.80;;
60935;SDS011;46804;51.786;19.520;2023-07-13T15:47:34;6.50;;;3.38;;
60935;SDS011;46804;51.786;19.520;2023-07-13T15:51:35;5.65;;;3.35;;
60935;SDS011;46804;51.786;19.520;2023-07-13T15:55:39;5.90;;;3.60;;
60935;SDS011;46804;51.786;19.520;2023-07-13T15:59:40;6.05;;;3.00;;
60935;SDS011;46804;51.786;19.520;2023-07-13T16:03:42;4.90;;;3.10;;
60935;SDS011;46804;51.786;19.520;2023-07-13T16:07:44;9.13;;;3.40;;
60935;SDS011;46804;51.786;19.520;2023-07-13T16:11:47;8.32;;;3.13;;
60935;SDS011;46804;51.786;19.520;2023-07-13T16:15:48;6.78;;;3.58;;
60935;SDS011;46804;51.786;19.520;2023-07-13T16:19:49;5.70;;;3.08;;
60935;SDS011;46804;51.786;19.520;2023-07-13T16:23:50;5.40;;;3.17;;
60935;SDS011;46804;51.786;19.520;2023-07-13T16:27:52;4.40;;;3.03;;
60935;SDS011;46804;51.786;19.520;2023-07-13T16:31:54;5.72;;;2.80;;
60935;SDS011;46804;51.786;19.520;2023-07-13T16:35:56;6.10;;;3.40;;
60935;SDS011;46804;51.786;19.520;2023-07-13T16:39:59;5.25;;;3.10;;
60935;SDS011;46804;51.786;19.520;2023-07-13T16:44:00;5.00;;;3.13;;
60935;SDS011;46804;51.786;19.520;2023-07-13T16:48:02;6.32;;;3.72;;
60935;SDS011;46804;51.786;19.520;2023-07-13T16:52:13;5.47;;;3.33;;
60935;SDS011;46804;51.786;19.520;2023-07-13T16:56:19;6.10;;;3.35;;
60935;SDS011;46804;51.786;19.520;2023-07-13T17:00:24;5.50;;;3.10;;
60935;SDS011;46804;51.786;19.520;2023-07-13T17:04:29;4.45;;;3.03;;
60935;SDS011;46804;51.786;19.520;2023-07-13T17:08:30;4.72;;;3.10;;
60935;SDS011;46804;51.786;19.520;2023-07-13T17:12:32;5.82;;;3.15;;
60935;SDS011;46804;51.786;19.520;2023-07-13T17:16:34;4.45;;;3.13;;
60935;SDS011;46804;51.786;19.520;2023-07-13T17:20:35;9.18;;;3.05;;
60935;SDS011;46804;51.786;19.520;2023-07-13T17:24:43;5.85;;;3.15;;
60935;SDS011;46804;51.786;19.520;2023-07-13T17:28:44;4.85;;;3.40;;
60935;SDS011;46804;51.786;19.520;2023-07-13T17:32:46;7.35;;;3.35;;
60935;SDS011;46804;51.786;19.520;2023-07-13T17:36:49;6.03;;;3.42;;
60935;SDS011;46804;51.786;19.520;2023-07-13T17:40:49;7.07;;;3.88;;
60935;SDS011;46804;51.786;19.520;2023-07-13T17:44:50;7.72;;;3.30;;
60935;SDS011;46804;51.786;19.520;2023-07-13T17:48:50;5.15;;;3.38;;
60935;SDS011;46804;51.786;19.520;2023-07-13T17:52:53;9.30;;;3.25;;
60935;SDS011;46804;51.786;19.520;2023-07-13T17:56:55;7.45;;;3.60;;
60935;SDS011;46804;51.786;19.520;2023-07-13T18:00:55;5.63;;;3.20;;
60935;SDS011;46804;51.786;19.520;2023-07-13T18:04:56;7.82;;;3.40;;
60935;SDS011;46804;51.786;19.520;2023-07-13T18:08:58;6.00;;;3.60;;
60935;SDS011;46804;51.786;19.520;2023-07-13T18:13:00;5.40;;;3.50;;
60935;SDS011;46804;51.786;19.520;2023-07-13T18:17:01;8.35;;;3.85;;
60935;SDS011;46804;51.786;19.520;2023-07-13T18:21:01;8.52;;;3.95;;
60935;SDS011;46804;51.786;19.520;2023-07-13T18:25:05;5.68;;;3.17;;
60935;SDS011;46804;51.786;19.520;2023-07-13T18:29:11;6.78;;;3.05;;
60935;SDS011;46804;51.786;19.520;2023-07-13T18:33:20;5.05;;;3.00;;
60935;SDS011;46804;51.786;19.520;2023-07-13T18:37:24;5.35;;;3.40;;
60935;SDS011;46804;51.786;19.520;2023-07-13T18:41:25;7.20;;;3.47;;
60935;SDS011;46804;51.786;19.520;2023-07-13T18:45:26;7.32;;;3.97;;
60935;SDS011;46804;51.786;19.520;2023-07-13T18:49:26;4.85;;;3.40;;
60935;SDS011;46804;51.786;19.520;2023-07-13T18:53:27;5.82;;;3.03;;
60935;SDS011;46804;51.786;19.520;2023-07-13T18:57:28;4.57;;;3.00;;
60935;SDS011;46804;51.786;19.520;2023-07-13T19:01:30;4.90;;;3.08;;
60935;SDS011;46804;51.786;19.520;2023-07-13T19:05:35;4.55;;;2.88;;
60935;SDS011;46804;51.786;19.520;2023-07-13T19:09:36;5.45;;;3.67;;
60935;SDS011;46804;51.786;19.520;2023-07-13T19:13:38;10.50;;;5.20;;
60935;SDS011;46804;51.786;19.520;2023-07-13T19:17:39;8.93;;;3.90;;
60935;SDS011;46804;51.786;19.520;2023-07-13T19:21:39;13.37;;;4.20;;
60935;SDS011;46804;51.786;19.520;2023-07-13T19:25:40;9.07;;;4.18;;
60935;SDS011;46804;51.786;19.520;2023-07-13T19:29:41;6.05;;;4.00;;
60935;SDS011;46804;51.786;19.520;2023-07-13T19:33:42;6.95;;;4.85;;
60935;SDS011;46804;51.786;19.520;2023-07-13T19:37:44;7.78;;;4.80;;
60935;SDS011;46804;51.786;19.520;2023-07-13T19:41:45;7.47;;;4.63;;
60935;SDS011;46804;51.786;19.520;2023-07-13T19:45:45;6.80;;;4.15;;
60935;SDS011;46804;51.786;19.520;2023-07-13T19:49:46;7.68;;;3.88;;
60935;SDS011;46804;51.786;19.520;2023-07-13T19:53:50;5.95;;;4.00;;
60935;SDS011;46804;51.786;19.520;2023-07-13T19:57:54;7.47;;;3.47;;
60935;SDS011;46804;51.786;19.520;2023-07-13T20:01:56;4.40;;;2.92;;
60935;SDS011;46804;51.786;19.520;2023-07-13T20:05:58;5.47;;;3.07;;
60935;SDS011;46804;51.786;19.520;2023-07-13T20:09:58;5.22;;;3.33;;
60935;SDS011;46804;51.786;19.520;2023-07-13T20:13:59;6.50;;;2.95;;
60935;SDS011;46804;51.786;19.520;2023-07-13T20:18:01;6.43;;;3.28;;
60935;SDS011;46804;51.786;19.520;2023-07-13T20:26:11;5.57;;;3.13;;
60935;SDS011;46804;51.786;19.520;2023-07-13T20:30:12;5.72;;;3.20;;
60935;SDS011;46804;51.786;19.520;2023-07-13T20:34:23;7.00;;;3.60;;
60935;SDS011;46804;51.786;19.520;2023-07-13T20:38:26;5.85;;;3.25;;
60935;SDS011;46804;51.786;19.520;2023-07-13T20:42:26;5.88;;;3.50;;
60935;SDS011;46804;51.786;19.520;2023-07-13T20:46:27;4.03;;;3.03;;
60935;SDS011;46804;51.786;19.520;2023-07-13T20:50:29;4.38;;;2.97;;
60935;SDS011;46804;51.786;19.520;2023-07-13T20:54:30;5.10;;;3.25;;
60935;SDS011;46804;51.786;19.520;2023-07-13T20:58:31;5.07;;;3.20;;
60935;SDS011;46804;51.786;19.520;2023-07-13T21:02:32;5.78;;;3.13;;
60935;SDS011;46804;51.786;19.520;2023-07-13T21:06:33;5.07;;;3.00;;
60935;SDS011;46804;51.786;19.520;2023-07-13T21:10:34;4.55;;;3.10;;
60935;SDS011;46804;51.786;19.520;2023-07-13T21:14:34;8.15;;;3.08;;
60935;SDS011;46804;51.786;19.520;2023-07-13T21:18:36;6.45;;;2.95;;
60935;SDS011;46804;51.786;19.520;2023-07-13T21:22:37;4.55;;;3.03;;
60935;SDS011;46804;51.786;19.520;2023-07-13T21:26:38;5.28;;;3.58;;
60935;SDS011;46804;51.786;19.520;2023-07-13T21:30:39;7.82;;;4.38;;
60935;SDS011;46804;51.786;19.520;2023-07-13T21:34:41;5.95;;;3.58;;
60935;SDS011;46804;51.786;19.520;2023-07-13T21:38:42;8.27;;;3.88;;
60935;SDS011;46804;51.786;19.520;2023-07-13T21:42:45;8.73;;;3.33;;
60935;SDS011;46804;51.786;19.520;2023-07-13T21:46:46;7.80;;;4.30;;
60935;SDS011;46804;51.786;19.520;2023-07-13T21:50:48;7.95;;;4.65;;
60935;SDS011;46804;51.786;19.520;2023-07-13T21:54:52;8.30;;;4.80;;
60935;SDS011;46804;51.786;19.520;2023-07-13T21:58:54;10.32;;;4.43;;
60935;SDS011;46804;51.786;19.520;2023-07-13T22:02:55;7.05;;;3.95;;
60935;SDS011;46804;51.786;19.520;2023-07-13T22:11:07;6.78;;;3.85;;
60935;SDS011;46804;51.786;19.520;2023-07-13T22:15:09;6.05;;;3.38;;
60935;SDS011;46804;51.786;19.520;2023-07-13T22:19:16;6.65;;;3.67;;
60935;SDS011;46804;51.786;19.520;2023-07-13T22:23:21;6.60;;;3.20;;
60935;SDS011;46804;51.786;19.520;2023-07-13T22:27:23;4.80;;;3.28;;
60935;SDS011;46804;51.786;19.520;2023-07-13T22:31:28;5.95;;;3.25;;
60935;SDS011;46804;51.786;19.520;2023-07-13T22:35:29;4.65;;;3.13;;
60935;SDS011;46804;51.786;19.520;2023-07-13T22:39:31;5.63;;;3.42;;
60935;SDS011;46804;51.786;19.520;2023-07-13T22:43:32;5.43;;;3.13;;
60935;SDS011;46804;51.786;19.520;2023-07-13T22:47:33;4.38;;;3.13;;
60935;SDS011;46804;51.786;19.520;2023-07-13T22:51:34;6.32;;;3.30;;
60935;SDS011;46804;51.786;19.520;2023-07-13T22:55:34;6.47;;;3.55;;
60935;SDS011;46804;51.786;19.520;2023-07-13T22:59:35;5.80;;;3.10;;
60935;SDS011;46804;51.786;19.520;2023-07-13T23:03:37;5.25;;;3.30;;
60935;SDS011;46804;51.786;19.520;2023-07-13T23:07:38;5.85;;;3.08;;
60935;SDS011;46804;51.786;19.520;2023-07-13T23:11:39;6.13;;;3.20;;
60935;SDS011;46804;51.786;19.520;2023-07-13T23:15:40;4.90;;;3.40;;
60935;SDS011;46804;51.786;19.520;2023-07-13T23:19:41;5.32;;;3.25;;
60935;SDS011;46804;51.786;19.520;2023-07-13T23:23:42;6.53;;;3.50;;
60935;SDS011;46804;51.786;19.520;2023-07-13T23:27:42;4.80;;;3.38;;
60935;SDS011;46804;51.786;19.520;2023-07-13T23:31:44;4.35;;;3.05;;
60935;SDS011;46804;51.786;19.520;2023-07-13T23:35:45;5.68;;;3.38;;
60935;SDS011;46804;51.786;19.520;2023-07-13T23:39:47;4.72;;;3.50;;
60935;SDS011;46804;51.786;19.520;2023-07-13T23:43:48;5.32;;;3.42;;
60935;SDS011;46804;51.786;19.520;2023-07-13T23:47:50;6.78;;;3.80;;
60935;SDS011;46804;51.786;19.520;2023-07-13T23:51:52;5.90;;;3.40;;
60935;SDS011;46804;51.786;19.520;2023-07-13T23:55:57;6.40;;;3.42;;
60935;SDS011;46804;51.786;19.520;2023-07-13T23:59:58;5.43;;;3.47;;
